Thompson, Iowa
Current Conditions -  °F | °C
As of 4:10 AM on Thursday 27 Nov 2014 (Local Time) from KFXY Reporting Station
Clear Clear  
Wind Chill: -17°   Ceiling: Unl
Heat Index:   Visibility: 10mi
Dew Point: -6°   Wind: 10mph
Humidity: 78%   Direction: 310°NW
Pressure: 30.43"   Gusts: NA
Location:  43.37°N, 93.77°W
Report Text: KFXY 271010Z AUTO 31009KT 10SM CLR M18/M21 A3043 RMK AO2
Loading
Personal Weather Stations






























Interactive Weather Map New forecast layout! Learn more

10-Day Weather Forecast

Advertisements
Track Severe Weather on mobile